Time;durP1;ratioP1;P1;durP2;ratioP2;P2;SDS_P1;SDS_P2;PMS_P1;PMS_P2;Temp;Humidity;BMP_temperature;BMP_pressure;BME280_temperature;BME280_humidity;BME280_pressure;Samples;Min_cycle;Max_cycle;Signal;HPM_P1;HPM_P2
2021/01/05 00:01:18;;;;;;;23.45;11.25;;;1.70;75.30;;;;;;4996444;28;20410;-66
2021/01/05 00:03:43;;;;;;;22.23;10.82;;;1.80;75.40;;;;;;4999491;28;20046;-66
2021/01/05 00:06:09;;;;;;;24.70;10.93;;;1.80;75.30;;;;;;5000308;28;20046;-66
2021/01/05 00:08:35;;;;;;;21.55;10.50;;;1.80;75.30;;;;;;4998985;28;20030;-66
2021/01/05 00:11:00;;;;;;;19.80;10.70;;;1.80;75.20;;;;;;5000746;28;20034;-66
2021/01/05 00:13:26;;;;;;;23.13;11.18;;;1.90;75.20;;;;;;5000054;28;20030;-66
2021/01/05 00:15:51;;;;;;;22.85;10.45;;;1.90;75.10;;;;;;4999203;28;20042;-66
2021/01/05 00:18:17;;;;;;;20.90;10.13;;;1.90;75.20;;;;;;5000462;28;20042;-66
2021/01/05 00:20:43;;;;;;;20.77;10.50;;;1.90;75.00;;;;;;4998857;28;20502;-66
2021/01/05 00:23:08;;;;;;;18.80;9.35;;;1.90;75.00;;;;;;4998817;28;20065;-66
2021/01/05 00:25:34;;;;;;;22.08;10.48;;;2.00;75.00;;;;;;4988984;28;20053;-65
2021/01/05 00:28:00;;;;;;;20.90;10.40;;;2.10;75.00;;;;;;4995787;28;20031;-66
2021/01/05 00:30:27;;;;;;;21.02;10.80;;;2.00;74.80;;;;;;4996761;28;20026;-66
2021/01/05 00:32:54;;;;;;;21.00;10.73;;;2.00;74.90;;;;;;4998114;28;20038;-65
2021/01/05 00:35:26;;;;;;;18.25;10.00;;;2.10;74.90;;;;;;4999116;28;20473;-66
2021/01/05 00:37:52;;;;;;;20.50;10.63;;;2.10;74.80;;;;;;5001328;28;20511;-66
2021/01/05 00:40:20;;;;;;;20.25;10.55;;;2.10;74.80;;;;;;5001218;28;20110;-66
2021/01/05 00:42:46;;;;;;;20.02;10.00;;;2.10;74.80;;;;;;5004486;28;20133;-66
2021/01/05 00:45:19;;;;;;;19.77;10.43;;;2.10;74.80;;;;;;5003818;28;20046;-65
2021/01/05 00:47:45;;;;;;;19.65;10.65;;;2.10;75.50;;;;;;5000537;28;20113;-66
2021/01/05 00:50:11;;;;;;;18.48;9.88;;;2.10;74.70;;;;;;4999584;28;20105;-66
2021/01/05 00:52:38;;;;;;;19.45;10.43;;;2.10;74.60;;;;;;5004293;28;20982;-65
2021/01/05 00:55:04;;;;;;;18.67;9.73;;;2.10;74.60;;;;;;4999809;28;20040;-66
2021/01/05 00:57:30;;;;;;;20.75;10.75;;;2.10;74.60;;;;;;4999034;28;20095;-66
2021/01/05 00:59:55;;;;;;;22.70;11.02;;;2.10;74.60;;;;;;4999923;28;20486;-63
2021/01/05 01:02:21;;;;;;;21.63;11.02;;;2.10;74.60;;;;;;4997314;28;20034;-65
2021/01/05 01:04:47;;;;;;;18.83;9.75;;;2.10;74.60;;;;;;4999636;28;20128;-65
2021/01/05 01:07:13;;;;;;;19.90;10.35;;;2.10;74.60;;;;;;4999539;28;20058;-66
2021/01/05 01:09:38;;;;;;;22.75;10.95;;;2.10;74.60;;;;;;4998952;28;20048;-66
2021/01/05 01:12:15;;;;;;;22.25;10.85;;;2.10;74.70;;;;;;4997020;28;20026;-66
2021/01/05 01:14:43;;;;;;;21.70;10.68;;;2.10;74.50;;;;;;4998821;28;20137;-65
2021/01/05 01:17:09;;;;;;;20.02;10.70;;;2.10;74.60;;;;;;4998327;28;20565;-66
2021/01/05 01:19:35;;;;;;;22.60;10.93;;;2.20;74.80;;;;;;4999418;28;20759;-66
2021/01/05 01:22:01;;;;;;;20.38;10.55;;;2.10;74.60;;;;;;4998806;28;20062;-65
2021/01/05 01:24:26;;;;;;;19.70;10.10;;;2.20;74.70;;;;;;4997949;28;20030;-66
2021/01/05 01:26:53;;;;;;;21.95;10.68;;;2.20;74.70;;;;;;4998579;28;20042;-66
2021/01/05 01:29:20;;;;;;;21.23;10.20;;;2.20;74.80;;;;;;4998578;28;20026;-66
2021/01/05 01:31:47;;;;;;;18.92;10.02;;;2.20;75.60;;;;;;4998863;28;20030;-64
2021/01/05 01:34:15;;;;;;;19.52;10.25;;;2.20;74.70;;;;;;4999666;28;20445;-66
2021/01/05 01:36:41;;;;;;;19.65;9.77;;;2.30;74.70;;;;;;4999402;28;20042;-66
2021/01/05 01:39:07;;;;;;;18.25;9.93;;;2.20;74.70;;;;;;4999124;28;20046;-66
2021/01/05 01:41:33;;;;;;;21.67;10.80;;;2.20;74.80;;;;;;4998530;28;20018;-64
2021/01/05 01:43:59;;;;;;;19.70;9.93;;;2.20;74.80;;;;;;4998919;28;20565;-66
2021/01/05 01:46:29;;;;;;;20.65;10.52;;;2.20;74.90;;;;;;4998346;28;20425;-65
2021/01/05 01:48:55;;;;;;;20.02;10.18;;;2.20;74.80;;;;;;4996559;28;20040;-65
2021/01/05 01:51:20;;;;;;;18.17;9.57;;;2.30;74.90;;;;;;4996239;28;20029;-66
2021/01/05 01:54:03;;;;;;;18.85;9.77;;;2.20;74.80;;;;;;4997863;28;20029;-66
2021/01/05 01:56:56;;;;;;;24.15;10.68;;;2.30;74.80;;;;;;4999541;28;20045;-66
2021/01/05 01:59:56;;;;;;;19.58;9.57;;;2.30;74.80;;;;;;4999304;28;20092;-66
2021/01/05 02:02:44;;;;;;;23.15;10.57;;;2.30;74.80;;;;;;5002664;28;20521;-64
2021/01/05 02:05:13;;;;;;;21.38;10.20;;;2.30;74.70;;;;;;4995819;28;20045;-65
2021/01/05 02:08:10;;;;;;;19.65;10.10;;;2.30;74.80;;;;;;4998357;28;20073;-63
2021/01/05 02:11:00;;;;;;;21.17;10.00;;;2.30;74.80;;;;;;4998090;28;20567;-66
2021/01/05 02:13:58;;;;;;;23.17;10.60;;;2.30;74.80;;;;;;5000025;28;20038;-65
2021/01/05 02:16:33;;;;;;;21.13;10.32;;;2.30;74.80;;;;;;4997338;28;20037;-64
2021/01/05 02:19:05;;;;;;;;;;;2.30;74.80;;;;;;4999202;28;20053;-65
2021/01/05 02:21:37;;;;;;;22.42;10.90;;;2.30;75.00;;;;;;4997951;28;20284;-66
2021/01/05 02:24:41;;;;;;;23.77;10.65;;;2.30;74.80;;;;;;4998546;28;20050;-66
2021/01/05 02:27:11;;;;;;;22.23;10.40;;;2.30;74.80;;;;;;4996515;28;20061;-65
2021/01/05 02:29:44;;;;;;;24.15;11.27;;;2.20;74.80;;;;;;4999496;28;20493;-65
2021/01/05 02:32:22;;;;;;;23.90;10.50;;;2.20;75.00;;;;;;4997060;28;20068;-65
2021/01/05 02:35:08;;;;;;;21.85;10.30;;;2.20;74.90;;;;;;4998061;28;20026;-66
2021/01/05 02:37:58;;;;;;;22.83;10.35;;;2.20;74.80;;;;;;4998821;28;20077;-66
2021/01/05 02:40:49;;;;;;;23.25;10.43;;;2.20;74.80;;;;;;4997406;28;20042;-64
2021/01/05 02:43:32;;;;;;;22.20;10.70;;;2.20;74.80;;;;;;4998670;28;20027;-66
2021/01/05 02:46:23;;;;;;;24.63;11.05;;;2.20;74.90;;;;;;4997685;28;20058;-66
2021/01/05 02:48:59;;;;;;;24.05;11.05;;;2.20;75.00;;;;;;4997097;28;20125;-64
2021/01/05 02:51:33;;;;;;;23.30;11.43;;;2.20;75.00;;;;;;5012183;28;20543;-65
2021/01/05 02:54:39;;;;;;;22.00;10.82;;;2.20;75.00;;;;;;4998696;28;20057;-66
2021/01/05 02:57:19;;;;;;;;;;;2.20;74.90;;;;;;5001148;28;20042;-65
2021/01/05 03:00:22;;;;;;;23.75;10.18;;;2.20;75.00;;;;;;5002181;28;19944;-66
2021/01/05 03:03:25;;;;;;;25.83;12.10;;;2.10;74.80;;;;;;5000643;28;20053;-66
2021/01/05 03:06:13;;;;;;;26.77;11.65;;;2.10;74.90;;;;;;5002025;28;20452;-66
2021/01/05 03:08:52;;;;;;;28.10;11.85;;;2.10;75.00;;;;;;5001281;28;20025;-66
2021/01/05 03:11:27;;;;;;;23.45;10.48;;;2.10;75.10;;;;;;4998051;28;20105;-65
2021/01/05 03:14:08;;;;;;;21.90;10.93;;;2.10;75.30;;;;;;5001425;28;20030;-66
2021/01/05 03:16:37;;;;;;;24.25;11.20;;;2.10;75.20;;;;;;5001704;28;20516;-66
2021/01/05 03:19:18;;;;;;;22.83;10.50;;;2.10;75.20;;;;;;5000371;28;20500;-66
2021/01/05 03:21:50;;;;;;;22.05;10.48;;;2.10;75.20;;;;;;5002250;28;20049;-66
2021/01/05 03:24:17;;;;;;;22.88;10.63;;;2.10;75.20;;;;;;5001875;28;20049;-66
2021/01/05 03:26:46;;;;;;;19.85;10.27;;;2.10;75.10;;;;;;5001491;28;20511;-66
2021/01/05 03:29:17;;;;;;;21.95;10.18;;;2.10;75.00;;;;;;5000250;28;20038;-66
2021/01/05 03:31:55;;;;;;;21.40;10.00;;;2.10;75.10;;;;;;5007644;28;20030;-66
2021/01/05 03:34:21;;;;;;;19.60;9.85;;;2.10;75.00;;;;;;4999868;28;20026;-66
2021/01/05 03:36:48;;;;;;;21.20;10.55;;;2.10;75.10;;;;;;5001770;28;20405;-65
2021/01/05 03:39:14;;;;;;;21.05;9.85;;;2.10;75.10;;;;;;5000350;28;20457;-66
2021/01/05 03:41:41;;;;;;;22.02;10.32;;;2.00;75.20;;;;;;5000111;28;20109;-66
2021/01/05 03:44:07;;;;;;;19.35;9.75;;;2.00;75.30;;;;;;4999959;28;20040;-66
2021/01/05 03:46:33;;;;;;;20.13;9.93;;;2.00;75.20;;;;;;5000890;28;20080;-66
2021/01/05 03:48:59;;;;;;;19.85;9.95;;;2.00;75.20;;;;;;5001526;28;20039;-65
2021/01/05 03:51:25;;;;;;;17.67;9.82;;;2.00;75.20;;;;;;5000755;28;20454;-66
2021/01/05 03:53:51;;;;;;;22.13;10.18;;;2.00;75.30;;;;;;5001559;28;20977;-65
2021/01/05 03:56:16;;;;;;;19.10;9.98;;;2.00;75.20;;;;;;5001040;28;20032;-66
2021/01/05 03:58:42;;;;;;;22.00;11.13;;;2.00;75.10;;;;;;4983474;28;20029;-66
2021/01/05 04:01:08;;;;;;;21.50;11.05;;;2.00;75.10;;;;;;4999545;28;20113;-66
2021/01/05 04:03:33;;;;;;;22.38;10.77;;;2.00;75.10;;;;;;5000767;28;20030;-65
2021/01/05 04:05:59;;;;;;;22.15;10.50;;;2.00;75.00;;;;;;5000012;28;20065;-66
2021/01/05 04:08:27;;;;;;;21.77;9.75;;;2.00;75.10;;;;;;4999181;28;20033;-66
2021/01/05 04:10:53;;;;;;;19.35;9.77;;;2.00;75.20;;;;;;4999753;28;20061;-66
2021/01/05 04:13:18;;;;;;;20.35;9.65;;;2.00;75.20;;;;;;5001172;28;20050;-66
2021/01/05 04:15:44;;;;;;;26.80;10.85;;;2.00;75.10;;;;;;5000691;28;20034;-66
2021/01/05 04:18:10;;;;;;;36.63;14.02;;;2.00;75.20;;;;;;5015037;28;20464;-66
2021/01/05 04:20:36;;;;;;;46.83;18.73;;;2.00;75.20;;;;;;5000188;28;20026;-66
2021/01/05 04:23:04;;;;;;;26.05;12.38;;;2.00;75.20;;;;;;5000353;28;20030;-66
2021/01/05 04:25:30;;;;;;;20.88;10.18;;;2.00;75.30;;;;;;5000572;28;20493;-66
2021/01/05 04:27:55;;;;;;;20.73;9.77;;;2.00;75.30;;;;;;5001012;28;20036;-66
2021/01/05 04:30:23;;;;;;;23.77;11.05;;;2.00;75.30;;;;;;4999742;28;20516;-66
2021/01/05 04:32:49;;;;;;;19.17;9.70;;;2.00;75.30;;;;;;5006370;28;20035;-66
2021/01/05 04:35:17;;;;;;;19.92;9.50;;;2.00;75.20;;;;;;5000538;28;20512;-66
2021/01/05 04:37:42;;;;;;;24.85;10.70;;;2.10;75.20;;;;;;4999580;28;20034;-65
2021/01/05 04:40:25;;;;;;;21.77;10.13;;;2.10;75.20;;;;;;5001077;28;20072;-66
2021/01/05 04:43:01;;;;;;;19.52;9.75;;;2.10;75.20;;;;;;4999617;28;20034;-66
2021/01/05 04:45:27;;;;;;;21.42;10.48;;;2.00;75.10;;;;;;5000731;28;20568;-66
2021/01/05 04:48:04;;;;;;;24.42;10.52;;;2.00;76.00;;;;;;5005901;28;20104;-65
2021/01/05 04:50:40;;;;;;;20.73;10.35;;;2.00;75.20;;;;;;4999866;28;20030;-66
2021/01/05 04:53:23;;;;;;;24.98;10.60;;;2.00;75.10;;;;;;5000102;28;20030;-66
2021/01/05 04:56:08;;;;;;;25.95;10.70;;;2.10;75.20;;;;;;5000058;28;20050;-65
2021/01/05 04:58:34;;;;;;;;;;;2.10;76.00;;;;;;5006535;28;20037;-65
2021/01/05 05:01:01;;;;;;;23.08;10.57;;;2.10;75.30;;;;;;5014717;28;20335;-65
2021/01/05 05:04:13;;;;;;;23.58;10.90;;;2.10;75.00;;;;;;5000750;28;20054;-66
2021/01/05 05:06:51;;;;;;;23.95;10.43;;;2.10;75.00;;;;;;4999473;28;20026;-66
2021/01/05 05:09:33;;;;;;;22.05;10.65;;;2.10;75.00;;;;;;4982666;28;20439;-66
2021/01/05 05:12:11;;;;;;;25.50;11.52;;;2.00;75.10;;;;;;4997491;28;20044;-66
2021/01/05 05:15:05;;;;;;;25.38;11.75;;;2.00;75.10;;;;;;4999927;28;20022;-65
2021/01/05 05:18:10;;;;;;;27.65;11.98;;;2.10;75.20;;;;;;4999331;28;20030;-66
2021/01/05 05:20:44;;;;;;;26.10;12.27;;;2.10;75.20;;;;;;4999114;28;20026;-65
2021/01/05 05:23:13;;;;;;;25.58;11.40;;;2.10;75.00;;;;;;4999092;28;20031;-66
2021/01/05 05:25:49;;;;;;;25.40;11.82;;;2.00;75.00;;;;;;4999762;28;20140;-66
2021/01/05 05:28:23;;;;;;;24.27;11.18;;;2.00;75.00;;;;;;5005402;28;20030;-65
2021/01/05 05:30:49;;;;;;;25.67;11.35;;;2.00;75.20;;;;;;4997987;28;20046;-65
2021/01/05 05:33:22;;;;;;;23.73;11.20;;;2.00;75.20;;;;;;5014044;28;20029;-66
2021/01/05 05:36:24;;;;;;;27.23;11.45;;;2.00;75.30;;;;;;4999621;28;20053;-65
2021/01/05 05:39:20;;;;;;;23.50;11.40;;;2.00;75.20;;;;;;4998889;28;20042;-66
2021/01/05 05:41:45;;;;;;;;;;;2.00;75.20;;;;;;4999671;28;20121;-66
2021/01/05 05:44:30;;;;;;;23.30;11.00;;;2.00;75.30;;;;;;4999217;28;20412;-66
2021/01/05 05:47:21;;;;;;;24.85;11.57;;;2.00;75.20;;;;;;4999200;28;20063;-66
2021/01/05 05:49:57;;;;;;;23.95;11.23;;;2.00;75.20;;;;;;4999256;28;20022;-66
2021/01/05 05:52:45;;;;;;;24.05;11.30;;;2.00;75.30;;;;;;4998402;28;20041;-66
2021/01/05 05:55:48;;;;;;;27.05;12.18;;;2.00;75.30;;;;;;4999029;28;20034;-66
2021/01/05 05:58:23;;;;;;;25.52;11.45;;;2.00;75.40;;;;;;4978026;28;20033;-66
2021/01/05 06:00:54;;;;;;;23.63;11.18;;;2.00;75.30;;;;;;4999084;28;20030;-66
2021/01/05 06:03:22;;;;;;;26.67;12.65;;;2.00;75.20;;;;;;4998983;28;20034;-66
2021/01/05 06:05:48;;;;;;;25.95;12.27;;;2.00;75.00;;;;;;4999233;28;20030;-66
2021/01/05 06:08:17;;;;;;;25.17;12.50;;;2.00;75.00;;;;;;4998865;28;20393;-66
2021/01/05 06:10:43;;;;;;;24.10;11.95;;;2.00;74.90;;;;;;4996800;28;20120;-66
2021/01/05 06:13:09;;;;;;;26.33;12.23;;;1.90;74.90;;;;;;4998036;28;20069;-66
2021/01/05 06:15:35;;;;;;;24.25;11.63;;;1.90;75.00;;;;;;5013295;28;20034;-66
2021/01/05 06:18:07;;;;;;;26.48;12.50;;;1.90;75.10;;;;;;4997109;28;20119;-66
2021/01/05 06:20:33;;;;;;;23.75;12.00;;;1.90;75.20;;;;;;5012721;28;20038;-66
2021/01/05 06:22:59;;;;;;;24.27;12.10;;;1.90;75.30;;;;;;5013389;28;20034;-66
2021/01/05 06:25:25;;;;;;;26.27;12.35;;;1.90;75.30;;;;;;4998406;28;20034;-66
2021/01/05 06:27:51;;;;;;;25.27;12.63;;;1.90;75.40;;;;;;4999561;28;20111;-66
2021/01/05 06:30:17;;;;;;;26.83;12.07;;;1.90;75.30;;;;;;4998263;28;20114;-66
2021/01/05 06:32:43;;;;;;;30.15;13.05;;;1.90;75.30;;;;;;5002101;28;20125;-66
2021/01/05 06:35:10;;;;;;;26.38;12.60;;;1.90;75.30;;;;;;5002790;28;20171;-66
2021/01/05 06:37:36;;;;;;;27.67;12.13;;;1.90;75.30;;;;;;5002486;28;20034;-66
2021/01/05 06:40:05;;;;;;;27.98;12.98;;;1.90;75.30;;;;;;5003012;28;20389;-66
2021/01/05 06:42:30;;;;;;;25.67;12.38;;;1.90;75.30;;;;;;5000933;28;20026;-66
2021/01/05 06:44:56;;;;;;;25.77;12.38;;;1.90;75.40;;;;;;4985541;28;20083;-66
2021/01/05 06:47:22;;;;;;;32.13;13.30;;;1.90;75.40;;;;;;5001351;28;20030;-66
2021/01/05 06:49:47;;;;;;;27.40;12.30;;;1.90;75.40;;;;;;5000744;28;20030;-66
2021/01/05 06:52:13;;;;;;;24.77;12.38;;;1.90;75.40;;;;;;5008516;28;20037;-66
2021/01/05 06:54:39;;;;;;;27.77;13.20;;;1.90;76.30;;;;;;5001851;28;20544;-66
2021/01/05 06:57:05;;;;;;;29.73;13.68;;;1.90;75.40;;;;;;5002379;28;20408;-66
2021/01/05 06:59:30;;;;;;;23.55;12.15;;;1.90;75.40;;;;;;5001953;28;20083;-66
2021/01/05 07:01:59;;;;;;;33.13;15.27;;;1.90;75.50;;;;;;5002477;28;20389;-66
2021/01/05 07:04:25;;;;;;;48.30;21.38;;;1.90;75.50;;;;;;5001377;28;20493;-66
2021/01/05 07:06:52;;;;;;;33.75;15.57;;;1.90;75.50;;;;;;5001947;28;20049;-66
2021/01/05 07:09:19;;;;;;;28.13;13.00;;;1.90;75.50;;;;;;5001690;28;20034;-66
2021/01/05 07:11:45;;;;;;;31.75;15.57;;;2.00;75.70;;;;;;4998600;28;20049;-66
2021/01/05 07:14:13;;;;;;;30.23;13.52;;;1.90;75.50;;;;;;5002388;28;20042;-66
2021/01/05 07:16:39;;;;;;;30.80;13.70;;;1.90;75.60;;;;;;5001392;28;20525;-66
2021/01/05 07:19:05;;;;;;;26.73;12.85;;;2.00;76.60;;;;;;5002066;28;20042;-66
2021/01/05 07:21:30;;;;;;;27.38;13.63;;;1.90;75.70;;;;;;5001798;28;20018;-66
2021/01/05 07:23:56;;;;;;;29.27;14.10;;;2.00;75.70;;;;;;5001918;28;20045;-66
2021/01/05 07:26:22;;;;;;;29.33;12.60;;;2.00;75.70;;;;;;5001187;28;20110;-65
2021/01/05 07:28:47;;;;;;;26.77;12.50;;;2.00;75.70;;;;;;5000380;28;20068;-66
2021/01/05 07:31:13;;;;;;;28.67;13.13;;;2.00;75.70;;;;;;5000654;28;20505;-66
2021/01/05 07:33:39;;;;;;;26.83;12.90;;;2.10;75.70;;;;;;5000320;28;20045;-66
2021/01/05 07:36:38;;;;;;;25.08;11.80;;;2.10;75.60;;;;;;5002024;28;20401;-66
2021/01/05 07:39:26;;;;;;;26.38;12.20;;;2.10;75.60;;;;;;5001498;28;20185;-66
2021/01/05 07:42:09;;;;;;;26.92;12.60;;;2.10;75.50;;;;;;5000257;28;20465;-66
2021/01/05 07:44:34;;;;;;;28.50;13.02;;;2.10;75.40;;;;;;5001609;28;20045;-66
2021/01/05 07:47:00;;;;;;;28.85;13.20;;;2.10;75.30;;;;;;5000756;28;20039;-65
2021/01/05 07:49:25;;;;;;;27.45;13.18;;;2.10;75.20;;;;;;5000096;28;20025;-65
2021/01/05 07:51:51;;;;;;;25.92;12.60;;;2.10;75.20;;;;;;5001533;28;20099;-66
2021/01/05 07:54:17;;;;;;;29.00;13.25;;;2.10;75.30;;;;;;4998942;28;22406;-67
2021/01/05 07:56:44;;;;;;;26.70;12.82;;;2.10;75.40;;;;;;4998201;28;20065;-69
2021/01/05 07:59:09;;;;;;;37.90;16.10;;;2.10;75.50;;;;;;5000052;28;20057;-67
2021/01/05 08:01:35;;;;;;;32.70;15.75;;;2.10;75.60;;;;;;4994991;28;20042;-64
2021/01/05 08:04:00;;;;;;;45.15;21.35;;;2.10;76.40;;;;;;4983974;28;20108;-66
2021/01/05 08:06:26;;;;;;;30.90;14.55;;;2.10;75.50;;;;;;4996422;28;20085;-66
2021/01/05 08:08:51;;;;;;;24.80;12.60;;;2.10;75.50;;;;;;4997711;28;20092;-65
2021/01/05 08:11:17;;;;;;;29.98;14.32;;;2.10;75.60;;;;;;4998416;28;20133;-66
2021/01/05 08:13:43;;;;;;;33.08;13.77;;;2.10;75.50;;;;;;4998899;28;20029;-66
2021/01/05 08:16:12;;;;;;;42.83;19.20;;;2.10;75.40;;;;;;4998504;28;21518;-66
2021/01/05 08:18:38;;;;;;;34.20;15.18;;;2.10;75.40;;;;;;5000128;28;20133;-66
2021/01/05 08:21:06;;;;;;;40.08;16.48;;;2.10;75.40;;;;;;4998591;28;20145;-66
2021/01/05 08:23:31;;;;;;;33.80;15.57;;;2.10;75.30;;;;;;4996743;28;20125;-65
2021/01/05 08:25:57;;;;;;;33.95;15.43;;;2.10;75.30;;;;;;4995687;28;20124;-66
2021/01/05 08:28:22;;;;;;;38.80;16.70;;;2.00;75.30;;;;;;4996987;28;20485;-65
2021/01/05 08:30:48;;;;;;;43.05;17.80;;;2.00;75.60;;;;;;4995644;28;20145;-66
2021/01/05 08:33:16;;;;;;;35.63;15.15;;;2.00;75.50;;;;;;4998457;28;20061;-66
2021/01/05 08:35:46;;;;;;;41.65;17.13;;;2.00;75.60;;;;;;4999141;28;20048;-66
2021/01/05 08:38:12;;;;;;;42.10;17.80;;;2.00;75.80;;;;;;4998003;28;20065;-67
2021/01/05 08:40:38;;;;;;;41.40;16.77;;;1.90;75.70;;;;;;4999741;28;20054;-66
2021/01/05 08:43:06;;;;;;;42.20;17.42;;;1.90;75.90;;;;;;4997898;28;20034;-66
2021/01/05 08:45:32;;;;;;;43.40;17.02;;;1.90;76.00;;;;;;4998217;28;20029;-66
2021/01/05 08:48:00;;;;;;;47.53;19.67;;;1.90;76.10;;;;;;4997897;28;20053;-65
2021/01/05 08:50:28;;;;;;;43.30;16.75;;;1.90;76.30;;;;;;4999210;28;20161;-66
2021/01/05 08:53:02;;;;;;;41.00;17.42;;;1.80;76.20;;;;;;4998666;28;20034;-66
2021/01/05 08:55:28;;;;;;;49.55;18.83;;;1.80;76.20;;;;;;4999038;28;20042;-66
2021/01/05 08:57:54;;;;;;;42.53;17.85;;;1.80;76.20;;;;;;4998741;28;20037;-66
2021/01/05 09:00:21;;;;;;;42.30;17.73;;;1.80;76.40;;;;;;4999797;28;20042;-66
2021/01/05 09:02:47;;;;;;;46.90;18.33;;;1.80;76.40;;;;;;4997880;28;20478;-65
2021/01/05 09:05:14;;;;;;;46.42;18.77;;;1.70;76.40;;;;;;4999656;28;20065;-66
2021/01/05 09:07:39;;;;;;;48.47;20.05;;;1.70;76.40;;;;;;4997940;28;20530;-66
2021/01/05 09:10:07;;;;;;;45.58;18.13;;;1.70;76.40;;;;;;4999444;28;20161;-66
2021/01/05 09:12:34;;;;;;;46.50;18.17;;;1.70;76.50;;;;;;4995896;28;20088;-66
2021/01/05 09:15:00;;;;;;;45.45;16.65;;;1.70;76.40;;;;;;4998808;28;20042;-65
2021/01/05 09:17:26;;;;;;;40.40;17.10;;;1.70;76.50;;;;;;5003612;28;20442;-66
2021/01/05 09:19:51;;;;;;;42.67;16.35;;;1.70;76.50;;;;;;4996484;28;20113;-65
2021/01/05 09:22:21;;;;;;;43.05;17.15;;;1.70;76.50;;;;;;4996457;28;20108;-66
2021/01/05 09:24:47;;;;;;;58.58;24.23;;;1.60;76.70;;;;;;4997412;28;20410;-66
2021/01/05 09:27:13;;;;;;;45.15;18.42;;;1.60;76.70;;;;;;4998501;28;20033;-66
2021/01/05 09:29:39;;;;;;;41.88;16.75;;;1.60;76.70;;;;;;4999379;28;20030;-65
2021/01/05 09:32:04;;;;;;;42.15;16.85;;;1.60;76.70;;;;;;4999710;28;20092;-66
2021/01/05 09:34:30;;;;;;;44.42;18.35;;;1.60;76.90;;;;;;5013528;28;20031;-66
2021/01/05 09:36:56;;;;;;;41.92;16.70;;;1.50;76.90;;;;;;4998430;28;20044;-66
2021/01/05 09:39:23;;;;;;;46.90;17.00;;;1.50;77.10;;;;;;4999141;28;20456;-65
2021/01/05 09:41:55;;;;;;;39.30;16.13;;;1.60;77.20;;;;;;4999742;28;20030;-66
2021/01/05 09:44:21;;;;;;;41.53;16.65;;;1.50;77.10;;;;;;4999032;28;20528;-66
2021/01/05 09:46:56;;;;;;;35.22;14.93;;;1.60;77.30;;;;;;4999885;28;20035;-66
2021/01/05 09:49:22;;;;;;;37.65;15.85;;;1.60;77.30;;;;;;4999062;28;20064;-65
2021/01/05 09:51:48;;;;;;;38.28;15.43;;;1.60;77.20;;;;;;5000570;28;20212;-66
2021/01/05 09:54:15;;;;;;;36.95;15.00;;;1.70;77.20;;;;;;4999677;28;20125;-66
2021/01/05 09:56:41;;;;;;;40.78;15.73;;;1.70;77.10;;;;;;5000127;28;20072;-66
2021/01/05 09:59:06;;;;;;;38.60;15.00;;;1.70;77.10;;;;;;4999445;28;20061;-64
2021/01/05 10:01:33;;;;;;;37.50;15.93;;;1.70;77.30;;;;;;4999690;28;20092;-66
2021/01/05 10:03:59;;;;;;;45.22;18.38;;;1.80;77.40;;;;;;5000525;28;20040;-66
2021/01/05 10:06:31;;;;;;;42.50;18.83;;;1.80;77.10;;;;;;4998568;28;20113;-66
2021/01/05 10:08:56;;;;;;;36.53;15.18;;;1.80;77.00;;;;;;4998929;28;20065;-65
2021/01/05 10:11:29;;;;;;;39.58;15.63;;;1.90;77.00;;;;;;4996611;28;20039;-65
2021/01/05 10:13:54;;;;;;;34.15;14.10;;;1.90;76.80;;;;;;4998195;28;20401;-65
2021/01/05 10:16:20;;;;;;;41.35;15.95;;;1.90;76.80;;;;;;4998992;28;20034;-66
2021/01/05 10:18:46;;;;;;;35.38;15.73;;;1.90;76.70;;;;;;4998053;28;20096;-65
2021/01/05 10:21:11;;;;;;;36.17;15.50;;;1.90;76.60;;;;;;4998810;28;20493;-66
2021/01/05 10:23:37;;;;;;;34.55;15.43;;;1.90;76.40;;;;;;4993016;28;20040;-65
2021/01/05 10:26:03;;;;;;;33.25;14.82;;;1.90;76.40;;;;;;4997018;28;20260;-66
2021/01/05 10:28:28;;;;;;;33.20;15.02;;;1.90;76.50;;;;;;4995457;28;20494;-65
2021/01/05 10:30:54;;;;;;;34.92;15.65;;;1.90;76.60;;;;;;5014234;28;20033;-66
2021/01/05 10:33:20;;;;;;;39.83;14.90;;;2.00;76.70;;;;;;4990454;28;20812;-65
2021/01/05 10:35:46;;;;;;;45.30;17.52;;;2.00;76.60;;;;;;4997790;28;20528;-65
2021/01/05 10:38:12;;;;;;;40.78;16.20;;;2.00;76.70;;;;;;4997635;28;20125;-65
2021/01/05 10:40:37;;;;;;;38.67;15.85;;;2.00;76.40;;;;;;4995081;28;20109;-66
2021/01/05 10:43:03;;;;;;;40.08;16.40;;;2.00;76.30;;;;;;4997710;28;20124;-66
2021/01/05 10:45:29;;;;;;;35.92;15.23;;;2.00;76.40;;;;;;4997596;28;20027;-66
2021/01/05 10:47:55;;;;;;;33.55;14.00;;;2.00;76.40;;;;;;4997832;28;20647;-66
2021/01/05 10:50:24;;;;;;;37.92;15.55;;;2.00;76.40;;;;;;4998888;28;20417;-66
2021/01/05 10:52:51;;;;;;;34.75;14.30;;;2.00;76.30;;;;;;4991368;28;20042;-65
2021/01/05 10:55:18;;;;;;;34.08;13.93;;;2.00;76.20;;;;;;4997690;28;20042;-66
2021/01/05 10:57:44;;;;;;;39.50;13.80;;;2.00;76.20;;;;;;4997336;28;20112;-66
2021/01/05 11:00:13;;;;;;;36.38;14.75;;;2.10;76.30;;;;;;5004047;28;20042;-66
2021/01/05 11:02:39;;;;;;;46.85;21.27;;;2.10;76.30;;;;;;4995526;28;20027;-65
2021/01/05 11:05:05;;;;;;;36.40;16.27;;;2.10;76.20;;;;;;4997481;28;20096;-66
2021/01/05 11:07:30;;;;;;;39.47;16.17;;;2.10;76.10;;;;;;4997416;28;20402;-66
2021/01/05 11:09:58;;;;;;;40.10;16.08;;;2.10;76.00;;;;;;4997007;28;20058;-65
2021/01/05 11:12:27;;;;;;;36.22;15.15;;;2.20;76.00;;;;;;4996283;28;20030;-66
2021/01/05 11:14:53;;;;;;;32.10;14.05;;;2.20;75.90;;;;;;4997846;28;20057;-64
2021/01/05 11:17:19;;;;;;;39.25;15.75;;;2.20;75.80;;;;;;4999828;28;20026;-66
2021/01/05 11:19:46;;;;;;;36.30;14.50;;;2.20;75.70;;;;;;5001716;28;20034;-66
2021/01/05 11:22:17;;;;;;;36.92;15.27;;;2.20;75.60;;;;;;5001916;28;20504;-66
2021/01/05 11:24:44;;;;;;;39.28;14.95;;;2.20;75.30;;;;;;5001036;28;20042;-66
2021/01/05 11:27:10;;;;;;;38.88;15.32;;;2.20;75.40;;;;;;5001607;28;20039;-66
2021/01/05 11:29:36;;;;;;;35.45;14.65;;;2.20;75.40;;;;;;5001836;28;20092;-66
2021/01/05 11:32:08;;;;;;;42.22;17.00;;;2.20;75.50;;;;;;5000345;28;20472;-66
2021/01/05 11:34:34;;;;;;;38.58;14.85;;;2.30;75.50;;;;;;5001605;28;20571;-66
2021/01/05 11:37:07;;;;;;;67.88;30.27;;;2.30;75.60;;;;;;5001708;28;20073;-66
2021/01/05 11:39:32;;;;;;;36.85;15.40;;;2.30;75.30;;;;;;5001810;28;20037;-66
2021/01/05 11:42:00;;;;;;;30.00;13.18;;;2.30;75.50;;;;;;5001939;28;20034;-66
2021/01/05 11:44:26;;;;;;;33.40;13.85;;;2.30;75.40;;;;;;5001296;28;20037;-66
2021/01/05 11:46:52;;;;;;;34.80;14.55;;;2.30;75.40;;;;;;4998094;28;20497;-65
2021/01/05 11:49:18;;;;;;;39.03;14.90;;;2.40;75.40;;;;;;4996860;28;20044;-65
2021/01/05 11:51:44;;;;;;;39.17;15.75;;;2.40;75.30;;;;;;4998028;28;20410;-67
2021/01/05 11:54:10;;;;;;;36.17;15.00;;;2.40;75.30;;;;;;4998744;28;20038;-66
2021/01/05 11:56:36;;;;;;;32.42;13.48;;;2.40;75.20;;;;;;5001313;28;20097;-66
2021/01/05 11:59:03;;;;;;;29.77;12.35;;;2.40;75.00;;;;;;5001475;28;20052;-65
2021/01/05 12:01:35;;;;;;;31.20;12.77;;;2.40;74.90;;;;;;5001116;28;20035;-66
2021/01/05 12:04:01;;;;;;;36.20;13.63;;;2.40;74.90;;;;;;5002131;28;20038;-66
2021/01/05 12:06:26;;;;;;;33.13;13.82;;;2.40;75.00;;;;;;5001101;28;20494;-66
2021/01/05 12:08:52;;;;;;;36.13;14.60;;;2.50;75.00;;;;;;5001543;28;20038;-65
2021/01/05 12:11:27;;;;;;;30.63;12.90;;;2.40;74.90;;;;;;5000356;28;20042;-66
2021/01/05 12:13:53;;;;;;;28.50;12.05;;;2.40;74.90;;;;;;5000181;28;20402;-66
2021/01/05 12:16:29;;;;;;;30.85;13.10;;;2.40;74.80;;;;;;4999478;28;20042;-66
2021/01/05 12:18:57;;;;;;;27.58;12.02;;;2.40;74.80;;;;;;5001098;28;20050;-66
2021/01/05 12:21:34;;;;;;;33.08;15.23;;;2.40;74.90;;;;;;5000581;28;20061;-66
2021/01/05 12:24:00;;;;;;;35.40;14.05;;;2.40;74.80;;;;;;5000802;28;20038;-66
2021/01/05 12:26:30;;;;;;;33.83;13.65;;;2.30;74.80;;;;;;4998825;28;20042;-66
2021/01/05 12:28:57;;;;;;;35.63;14.85;;;2.40;74.90;;;;;;4998790;28;20042;-66
2021/01/05 12:31:23;;;;;;;28.33;11.82;;;2.40;74.90;;;;;;5000366;28;20375;-66
2021/01/05 12:33:49;;;;;;;32.95;13.23;;;2.40;74.80;;;;;;5000400;28;20042;-65
2021/01/05 12:36:30;;;;;;;29.58;12.13;;;2.40;74.70;;;;;;5000436;28;20506;-66
2021/01/05 12:38:56;;;;;;;31.75;12.98;;;2.40;74.60;;;;;;4996765;28;20113;-66
2021/01/05 12:41:27;;;;;;;30.17;12.95;;;2.40;74.80;;;;;;5000671;28;20073;-66
2021/01/05 12:43:53;;;;;;;27.67;12.07;;;2.40;74.60;;;;;;4999866;28;20120;-67
2021/01/05 12:46:27;;;;;;;27.88;11.93;;;2.40;74.50;;;;;;4999111;28;20042;-66
2021/01/05 12:48:53;;;;;;;29.42;12.45;;;2.50;74.50;;;;;;4999106;28;20053;-64
2021/01/05 12:51:39;;;;;;;30.90;13.00;;;2.50;74.50;;;;;;4998917;28;20030;-65
2021/01/05 12:54:06;;;;;;;32.13;13.30;;;2.50;74.30;;;;;;4997826;28;22325;-66